EGPA - Kirkwall Airport
Distance from station: E 5mi, 14km
Updated: 12/15/2017 3:20pm
Few Clouds
Few Clouds
 Wind from NW
Wind: NW 12 mph , 19 km/h
Temperature: 36°F , 2°C
Wind Chill: 28°F , -2°C
Dew Point: 32°F , 0°C
Humidity: 87%
Barometer: 29.8 inHg , 1009 hPa
Clouds: Few Clouds
Visibility: 6 miles , 10 km
Cloud details: Few Clouds 3500 ft
2017/12/15 23:20 EGPA 152320Z 31010KT 9999 FEW035 02/00 Q1009